Startpagina
METAR-TAF:

METAR-TAF

Vliegvelden :

Luchthaven Kaunas

Kaunas, Litouwen

breedte: 54-54N, lengte: 023-55-12E, hoogte: 77 m

Actueel weer

Dit bericht is 7 minuten geleden gemaakt, om 08:20 UTC
Wind 5 kt uit het oosten, variërend tussen het noordnoordoosten en het zuidzuidoosten
Temperatuur 25°C
Vochtigheid 41%
Druk 1018 hPa
Zicht 10 km of meer
geen wolken onder 1500 m en geen cumulonimbus

METAR: EYKA 250820Z 09005KT 030V150 CAVOK 25/11 Q1018

Tijdstip: 11:27 (08:27 UTC)

Verwachting

Dit bericht is 3 uur en het 27 minuten geleden gemaakt, om 05:00 UTC
Verwachting geldig van 25 om 06 UTC tot 26 om 06 UTC
Wind 4 kt uit variabele richting
Zicht: 9000 m
Tijdelijke
van 25 om 08 UTC tot 25 om 15 UTC
Wind 14 kt uit het oosten
Verspreide wolken op 4000 ft

TAF: EYKA 250500Z 2506/2606 VRB04KT 9000 NSC TEMPO 2508/2515 10014KT SCT040

Waarnemingen en weersverwachtingen van meer dan 4000 vliegvelden (METAR en TAF).

De beschikbare stations zijn de gele en rode punten op de kaart.

Ga met uw muis naar het station om de naam te zien.

Klik dan om waarnemingen en weersverwachtingen te zien.

kaart wijzigen: klik op de groene knoppen met een zwart kruis om in te zoomen, op de groene knop met een streepje om uit te zoomen of op de groene pijlen voor aangrenzende kaarten.


METAR-TAF: